createdAt,value
2019-02-26T00:04:27.395Z,94.60
2019-02-26T00:09:13.175Z,94.70
2019-02-26T00:13:58.990Z,94.90
2019-02-26T00:18:43.578Z,94.30
2019-02-26T00:23:30.053Z,94.30
2019-02-26T00:28:15.969Z,93.90
2019-02-26T00:33:02.854Z,94.10
2019-02-26T00:37:48.817Z,94.40
2019-02-26T00:42:34.273Z,94.30
2019-02-26T00:47:19.243Z,95.00
2019-02-26T00:52:04.591Z,94.80
2019-02-26T00:56:49.956Z,94.70
2019-02-26T01:01:34.555Z,95.10
2019-02-26T01:06:19.074Z,95.60
2019-02-26T01:11:04.365Z,95.30
2019-02-26T01:15:49.868Z,95.20
2019-02-26T01:20:34.488Z,95.00
2019-02-26T01:25:21.778Z,95.10
2019-02-26T01:30:06.255Z,95.00
2019-02-26T01:34:50.717Z,95.60
2019-02-26T01:39:35.655Z,96.30
2019-02-26T01:44:21.461Z,96.90
2019-02-26T01:49:05.957Z,97.00
2019-02-26T01:53:51.905Z,97.20
2019-02-26T01:58:37.051Z,97.20
2019-02-26T02:03:23.093Z,97.50
2019-02-26T02:08:11.037Z,97.60
2019-02-26T02:12:57.410Z,97.70
2019-02-26T02:17:40.423Z,98.10
2019-02-26T02:22:24.901Z,98.60
2019-02-26T02:27:09.505Z,99.10
2019-02-26T02:31:54.879Z,99.10
2019-02-26T02:36:40.315Z,99.20
2019-02-26T02:41:24.938Z,99.60
2019-02-26T02:46:09.517Z,99.90
2019-02-26T02:50:54.049Z,99.90
2019-02-26T02:55:40.263Z,99.90
2019-02-26T03:00:26.505Z,99.90
2019-02-26T03:05:11.605Z,99.90
2019-02-26T03:09:57.891Z,99.90
2019-02-26T03:14:44.511Z,99.90
2019-02-26T03:19:29.744Z,99.90
2019-02-26T03:24:14.925Z,99.90
2019-02-26T03:28:59.478Z,99.90
2019-02-26T03:33:43.974Z,99.90
2019-02-26T03:38:28.873Z,99.90
2019-02-26T03:43:16.013Z,99.90
2019-02-26T03:47:59.661Z,99.90
2019-02-26T03:52:44.701Z,99.90
2019-02-26T03:57:29.297Z,99.90
2019-02-26T04:02:15.317Z,99.90
2019-02-26T04:07:01.449Z,99.90
2019-02-26T04:11:49.620Z,99.90
2019-02-26T04:16:35.161Z,99.90
2019-02-26T04:21:20.936Z,99.90
2019-02-26T04:26:49.172Z,99.90
2019-02-26T04:32:12.013Z,99.90
2019-02-26T04:37:38.624Z,99.90
2019-02-26T04:43:04.834Z,99.90
2019-02-26T04:47:52.418Z,99.90
2019-02-26T04:52:40.004Z,99.90
2019-02-26T04:57:23.570Z,99.90
2019-02-26T05:02:08.097Z,99.90
2019-02-26T05:06:52.694Z,99.90
2019-02-26T05:11:40.662Z,99.90
2019-02-26T05:16:26.004Z,99.90
2019-02-26T05:21:10.822Z,99.90
2019-02-26T05:26:02.909Z,99.90
2019-02-26T05:30:45.815Z,99.90
2019-02-26T05:35:30.083Z,99.90
2019-02-26T05:40:16.400Z,99.90
2019-02-26T05:45:03.835Z,99.90
2019-02-26T05:49:47.154Z,99.90
2019-02-26T05:54:31.733Z,99.90
2019-02-26T05:59:18.065Z,99.90
2019-02-26T06:04:04.770Z,99.90
2019-02-26T06:08:48.958Z,99.90
2019-02-26T06:13:35.490Z,99.90
2019-02-26T06:18:20.978Z,99.90
2019-02-26T06:23:05.442Z,99.90
2019-02-26T06:27:49.975Z,99.90
2019-02-26T06:32:36.737Z,99.90
2019-02-26T06:37:23.483Z,99.90
2019-02-26T06:42:10.347Z,99.90
2019-02-26T06:46:54.642Z,99.90
2019-02-26T06:51:39.202Z,99.90
2019-02-26T06:56:24.066Z,99.90
2019-02-26T07:01:09.632Z,99.90
2019-02-26T07:05:54.970Z,99.90
2019-02-26T07:10:39.494Z,99.90
2019-02-26T07:15:24.010Z,99.90
2019-02-26T07:20:08.873Z,99.90
2019-02-26T07:24:53.967Z,99.90
2019-02-26T07:29:40.083Z,99.90
2019-02-26T07:34:25.537Z,99.90
2019-02-26T07:39:12.947Z,99.90
2019-02-26T07:43:57.483Z,99.90
2019-02-26T07:48:42.060Z,99.90
2019-02-26T07:53:26.676Z,99.90
2019-02-26T07:58:13.275Z,99.90
2019-02-26T08:02:59.670Z,99.90
2019-02-26T08:07:45.775Z,99.90
2019-02-26T08:12:30.964Z,99.90
2019-02-26T08:17:16.394Z,99.90
2019-02-26T08:22:00.946Z,99.90
2019-02-26T08:26:47.428Z,99.90
2019-02-26T08:31:31.612Z,99.90
2019-02-26T08:36:16.700Z,99.90
2019-02-26T08:41:01.649Z,99.90
2019-02-26T08:45:46.472Z,99.90
2019-02-26T08:50:33.305Z,99.90
2019-02-26T08:55:20.775Z,99.90
2019-02-26T09:00:02.818Z,99.90
2019-02-26T09:04:47.887Z,99.90
2019-02-26T09:09:32.884Z,99.90
2019-02-26T09:14:17.446Z,99.90
2019-02-26T09:19:02.139Z,99.90
2019-02-26T09:23:49.532Z,99.90
2019-02-26T09:28:33.029Z,99.90
2019-02-26T09:33:17.618Z,99.80
2019-02-26T09:38:02.140Z,99.90
2019-02-26T09:42:51.205Z,99.90
2019-02-26T09:47:33.501Z,99.90
2019-02-26T09:52:19.018Z,99.40
2019-02-26T09:57:04.455Z,99.20
2019-02-26T10:01:49.098Z,98.10
2019-02-26T10:06:34.912Z,98.30
2019-02-26T10:11:21.227Z,96.60
2019-02-26T10:16:06.436Z,97.20
2019-02-26T10:20:54.626Z,96.20
2019-02-26T10:25:38.983Z,96.60
2019-02-26T10:30:23.612Z,97.00
2019-02-26T10:35:14.034Z,95.60
2019-02-26T10:39:55.890Z,96.40
2019-02-26T10:44:42.639Z,95.50
2019-02-26T10:49:28.609Z,96.10
2019-02-26T10:54:17.643Z,94.50
2019-02-26T10:59:03.471Z,94.00
2019-02-26T11:03:47.238Z,93.80
2019-02-26T11:08:32.904Z,93.30
2019-02-26T11:13:20.201Z,93.80
2019-02-26T11:18:04.977Z,92.40
2019-02-26T11:22:50.275Z,93.70
2019-02-26T11:27:38.016Z,93.50
2019-02-26T11:32:22.425Z,94.20
2019-02-26T11:37:08.906Z,93.70
2019-02-26T11:41:54.569Z,93.40
2019-02-26T11:46:39.838Z,93.20
2019-02-26T11:51:24.413Z,92.30
2019-02-26T11:56:09.180Z,92.70
2019-02-26T12:00:58.730Z,90.30
2019-02-26T12:05:43.611Z,89.90
2019-02-26T12:15:15.206Z,89.10
2019-02-26T12:20:00.448Z,89.90
2019-02-26T12:24:47.791Z,90.20
2019-02-26T12:29:31.881Z,89.70
2019-02-26T12:34:17.600Z,89.00
2019-02-26T12:39:03.051Z,90.40
2019-02-26T12:43:47.956Z,90.20
2019-02-26T12:48:35.197Z,90.10
2019-02-26T12:53:20.664Z,90.80
2019-02-26T12:58:05.828Z,90.80
2019-02-26T13:02:52.369Z,91.00
2019-02-26T13:07:36.850Z,91.20
2019-02-26T13:12:24.011Z,90.80
2019-02-26T13:17:07.889Z,89.10
2019-02-26T13:21:56.272Z,90.50
2019-02-26T13:26:42.428Z,90.00
2019-02-26T13:31:26.459Z,89.90
2019-02-26T13:36:11.420Z,90.60
2019-02-26T13:41:24.318Z,90.30
2019-02-26T13:45:42.648Z,90.10
2019-02-26T13:50:28.385Z,89.70
2019-02-26T13:55:13.235Z,90.20
2019-02-26T13:59:58.094Z,90.00
2019-02-26T14:04:42.793Z,86.40
2019-02-26T14:09:28.733Z,88.10
2019-02-26T14:14:13.850Z,87.50
2019-02-26T14:18:59.711Z,88.00
2019-02-26T14:23:44.491Z,88.70
2019-02-26T14:28:29.143Z,90.20
2019-02-26T14:33:13.804Z,91.90
2019-02-26T14:37:58.406Z,91.60
2019-02-26T14:42:42.960Z,92.20
2019-02-26T14:47:27.716Z,92.10
2019-02-26T14:52:12.373Z,91.80
2019-02-26T14:56:57.111Z,92.10
2019-02-26T15:01:42.066Z,92.20
2019-02-26T15:06:26.804Z,92.30
2019-02-26T15:11:11.613Z,91.80
2019-02-26T15:15:56.355Z,92.20
2019-02-26T15:20:41.117Z,92.50
2019-02-26T15:25:25.798Z,92.70
2019-02-26T15:30:11.831Z,92.40
2019-02-26T15:34:56.638Z,91.90
2019-02-26T15:39:41.195Z,92.20
2019-02-26T15:44:28.717Z,92.80
2019-02-26T15:49:12.441Z,93.60
2019-02-26T15:53:56.942Z,93.80
2019-02-26T15:58:41.729Z,94.40
2019-02-26T16:03:29.298Z,95.10
2019-02-26T16:08:12.896Z,95.30
2019-02-26T16:13:04.567Z,96.80
2019-02-26T16:17:49.658Z,96.70
2019-02-26T16:22:34.389Z,97.40
2019-02-26T16:27:23.474Z,96.90
2019-02-26T16:32:08.412Z,97.00
2019-02-26T16:36:53.083Z,97.50
2019-02-26T16:41:38.324Z,97.10
2019-02-26T16:46:23.754Z,97.60
2019-02-26T16:51:08.554Z,97.70
2019-02-26T16:55:53.167Z,98.00
2019-02-26T17:00:37.800Z,97.80
2019-02-26T17:05:22.628Z,98.70
2019-02-26T17:10:09.040Z,98.20
2019-02-26T17:14:55.730Z,98.30
2019-02-26T17:19:40.257Z,98.80
2019-02-26T17:24:25.086Z,98.40
2019-02-26T17:29:09.852Z,98.30
2019-02-26T17:33:54.731Z,98.60
2019-02-26T17:38:39.478Z,99.10
2019-02-26T17:43:25.153Z,99.20
2019-02-26T17:48:10.049Z,99.50
2019-02-26T17:52:54.742Z,99.60
2019-02-26T17:57:39.790Z,99.70
2019-02-26T18:02:55.549Z,98.90
2019-02-26T18:07:40.254Z,99.30
2019-02-26T18:12:35.266Z,99.50
2019-02-26T18:17:19.777Z,99.90
2019-02-26T18:22:04.290Z,99.90
2019-02-26T18:26:50.421Z,99.90
2019-02-26T18:31:35.130Z,99.90
2019-02-26T18:36:19.925Z,99.90
2019-02-26T18:41:04.541Z,99.90
2019-02-26T18:45:49.462Z,99.90
2019-02-26T18:50:34.231Z,99.90
2019-02-26T18:55:19.321Z,99.90
2019-02-26T19:00:05.647Z,99.90
2019-02-26T19:04:50.597Z,99.90
2019-02-26T19:09:35.127Z,99.90
2019-02-26T19:14:23.110Z,99.90
2019-02-26T19:19:09.124Z,99.90
2019-02-26T19:23:54.160Z,99.90
2019-02-26T19:28:38.866Z,99.90
2019-02-26T19:33:23.580Z,99.90
2019-02-26T19:38:08.154Z,99.90
2019-02-26T19:42:53.410Z,99.90
2019-02-26T19:47:38.352Z,99.90
2019-02-26T19:52:23.064Z,99.90
2019-02-26T19:57:07.812Z,99.90
2019-02-26T20:01:52.675Z,99.90
2019-02-26T20:06:37.461Z,99.90
2019-02-26T20:11:22.754Z,99.90
2019-02-26T20:16:09.242Z,99.90
2019-02-26T20:20:53.951Z,99.90
2019-02-26T20:25:42.521Z,99.90
2019-02-26T20:30:25.130Z,99.90
2019-02-26T20:35:11.927Z,99.90
2019-02-26T20:39:57.184Z,99.90
2019-02-26T20:44:45.420Z,99.90
2019-02-26T20:49:30.046Z,99.90
2019-02-26T20:54:14.865Z,99.90
2019-02-26T20:58:59.519Z,99.90
2019-02-26T21:03:44.262Z,99.90
2019-02-26T21:08:30.949Z,99.90
2019-02-26T21:13:15.079Z,99.90
2019-02-26T21:17:59.936Z,99.90
2019-02-26T21:22:44.706Z,99.90
2019-02-26T21:27:29.321Z,99.90
2019-02-26T21:32:14.078Z,99.90
2019-02-26T21:37:00.050Z,99.90
2019-02-26T21:41:45.398Z,99.90
2019-02-26T21:46:30.112Z,99.90
2019-02-26T21:51:14.937Z,99.90
2019-02-26T21:55:59.610Z,99.90
2019-02-26T22:00:44.221Z,99.90
2019-02-26T22:05:28.902Z,99.90
2019-02-26T22:10:14.213Z,99.90
2019-02-26T22:14:58.958Z,99.90
2019-02-26T22:19:43.549Z,99.90
2019-02-26T22:24:28.237Z,99.90
2019-02-26T22:29:15.012Z,99.90
2019-02-26T22:34:03.334Z,99.90
2019-02-26T22:38:49.097Z,99.90
2019-02-26T22:43:34.630Z,99.90
2019-02-26T22:48:19.387Z,99.90
2019-02-26T22:53:04.602Z,99.90
2019-02-26T22:57:49.265Z,99.90
2019-02-26T23:02:35.288Z,99.90
2019-02-26T23:07:20.046Z,99.90
2019-02-26T23:12:05.599Z,99.90
2019-02-26T23:16:52.168Z,99.90
2019-02-26T23:21:37.247Z,99.90
2019-02-26T23:26:22.255Z,99.90
2019-02-26T23:31:08.607Z,99.90
2019-02-26T23:35:55.044Z,99.90
2019-02-26T23:40:39.714Z,99.90
2019-02-26T23:45:24.857Z,99.90
2019-02-26T23:50:09.737Z,99.90
2019-02-26T23:54:54.232Z,99.90
2019-02-26T23:59:38.853Z,99.90
